Arrufo, Argentina
Current Conditions -  °F | °C
As of 11:00 AM on Thursday 27 Nov 2014 (Local Time) from SACO Reporting Station
Clear Clear  
Wind Chill: 82°   Ceiling: Unl
Heat Index: 82°   Visibility: 6mi
Dew Point: 55°   Wind: 16mph
Humidity: 39%   Direction: 20°NNE
Pressure: 30.06"   Gusts: NA
Location:  30.23°S, 61.72°W
Report Text: SACO 271400Z 02014KT CAVOK 28/13 Q1018
Loading
Personal Weather Stations






























Interactive Weather Map New forecast layout! Learn more

10-Day Weather Forecast

Advertisements
Track Severe Weather on mobile